Time;durP1;ratioP1;P1;durP2;ratioP2;P2;SDS_P1;SDS_P2;PMS_P1;PMS_P2;Temp;Humidity;BMP_temperature;BMP_pressure;BME280_temperature;BME280_humidity;BME280_pressure;Samples;Min_cycle;Max_cycle;Signal;HPM_P1;HPM_P2
2023/05/30 00:02:12;;;;;;;204.90;65.65;;;;;;;18.10;54.65;102295.00;4989676;28;20022;-78
2023/05/30 00:04:39;;;;;;;201.70;65.47;;;;;;;18.09;54.81;102299.41;4992473;28;20027;-77
2023/05/30 00:07:05;;;;;;;207.13;66.63;;;;;;;18.08;54.35;102297.69;4992655;28;20030;-77
2023/05/30 00:09:30;;;;;;;202.05;65.25;;;;;;;18.09;54.43;102309.97;4992753;28;20111;-78
2023/05/30 00:11:56;;;;;;;203.85;64.88;;;;;;;18.07;55.11;102302.09;4982686;28;20027;-77
2023/05/30 00:14:23;;;;;;;206.70;66.50;;;;;;;18.07;54.88;102302.09;4973175;28;20030;-78
2023/05/30 00:16:48;;;;;;;203.57;67.30;;;;;;;18.06;55.18;102295.09;4973501;28;20042;-77
2023/05/30 00:19:13;;;;;;;200.43;66.22;;;;;;;18.05;54.36;102297.72;4989790;28;20105;-78
2023/05/30 00:21:39;;;;;;;202.52;66.55;;;;;;;18.04;55.07;102307.44;4986792;28;20154;-78
2023/05/30 00:24:05;;;;;;;208.65;65.50;;;;;;;18.02;54.83;102303.94;4991867;28;20026;-77
2023/05/30 00:26:31;;;;;;;200.68;65.25;;;;;;;18.02;55.21;102297.81;4986017;28;20025;-77
2023/05/30 00:28:56;;;;;;;218.10;67.93;;;;;;;18.01;55.38;102296.94;4989827;28;20037;-78
2023/05/30 00:31:21;;;;;;;199.20;65.80;;;;;;;18.01;54.96;102293.41;4995813;28;20026;-78
2023/05/30 00:33:47;;;;;;;202.85;65.38;;;;;;;18.00;54.74;102292.56;4992391;28;20117;-78
2023/05/30 00:36:12;;;;;;;195.48;64.65;;;;;;;18.00;54.79;102289.91;4975338;28;20451;-78
2023/05/30 00:38:39;;;;;;;205.65;67.65;;;;;;;17.99;54.63;102296.09;4957185;28;20038;-79
2023/05/30 00:41:05;;;;;;;198.57;65.70;;;;;;;17.99;54.72;102298.75;4990492;28;20077;-78
2023/05/30 00:43:30;;;;;;;197.70;65.00;;;;;;;17.99;54.88;102295.25;4988127;28;20442;-78
2023/05/30 00:45:56;;;;;;;204.82;65.78;;;;;;;17.99;54.57;102292.59;4992434;28;20444;-78
2023/05/30 00:48:22;;;;;;;206.93;66.50;;;;;;;17.98;54.58;102291.72;4975863;28;20030;-79
2023/05/30 00:50:48;;;;;;;193.85;63.40;;;;;;;17.97;55.21;102290.00;4973919;28;20622;-78
2023/05/30 00:53:14;;;;;;;196.77;64.85;;;;;;;17.95;54.42;102286.50;4974962;28;20054;-78
2023/05/30 00:55:40;;;;;;;198.82;64.30;;;;;;;17.95;55.04;102288.28;4992411;28;20105;-78
2023/05/30 00:58:06;;;;;;;210.40;66.75;;;;;;;17.95;55.12;102281.22;4990130;28;20072;-78
2023/05/30 01:00:37;;;;;;;196.63;64.60;;;;;;;17.95;54.61;102285.63;4987872;28;20468;-78
2023/05/30 01:03:03;;;;;;;204.00;65.40;;;;;;;17.94;54.49;102284.75;4975417;28;20058;-78
2023/05/30 01:05:28;;;;;;;203.00;65.00;;;;;;;17.92;54.57;102286.56;4983176;28;20058;-78
2023/05/30 01:07:54;;;;;;;213.70;66.25;;;;;;;17.93;54.51;102292.72;4990251;28;20026;-78
2023/05/30 01:10:20;;;;;;;198.75;64.60;;;;;;;17.92;54.51;102289.22;4994018;28;20057;-78
2023/05/30 01:13:11;;;;;;;201.65;65.80;;;;;;;17.91;54.89;102276.84;4974051;28;20519;-78
2023/05/30 01:15:48;;;;;;;201.05;64.93;;;;;;;17.92;54.70;102285.72;4992404;28;20030;-78
2023/05/30 01:18:19;;;;;;;200.10;64.53;;;;;;;17.90;54.80;102285.69;4975334;28;20057;-78
2023/05/30 01:20:48;;;;;;;202.35;65.65;;;;;;;17.89;54.58;102292.75;4990994;28;20022;-77
2023/05/30 01:23:46;;;;;;;207.20;65.90;;;;;;;17.89;54.41;102292.75;4989693;28;20053;-77
2023/05/30 01:26:21;;;;;;;210.30;65.90;;;;;;;17.88;54.74;102300.72;4982086;28;20022;-77
2023/05/30 01:28:49;;;;;;;201.13;64.75;;;;;;;17.88;54.13;102300.72;4958919;28;20034;-77
2023/05/30 01:31:14;;;;;;;204.27;64.15;;;;;;;17.87;54.38;102296.34;4969724;28;20050;-77
2023/05/30 01:33:41;;;;;;;204.82;64.65;;;;;;;17.87;54.54;102305.16;4990852;28;20053;-77
2023/05/30 01:36:07;;;;;;;201.95;64.00;;;;;;;17.86;54.68;102298.13;4982941;28;20018;-77
2023/05/30 01:38:34;;;;;;;200.23;63.70;;;;;;;17.86;54.86;102307.81;4973735;28;20018;-77
2023/05/30 01:41:00;;;;;;;196.02;62.90;;;;;;;17.85;54.39;102312.22;4973299;28;20076;-77
2023/05/30 01:44:13;;;;;;;202.07;64.57;;;;;;;17.86;54.04;102311.34;4982121;28;20034;-77
2023/05/30 01:46:45;;;;;;;192.50;62.67;;;;;;;17.85;54.45;102316.66;4966627;28;20105;-77
2023/05/30 01:49:44;;;;;;;208.43;66.18;;;;;;;17.85;54.46;102314.00;4986440;28;20022;-77
2023/05/30 01:52:17;;;;;;;198.20;64.03;;;;;;;17.83;54.12;102318.44;4983336;28;20105;-77
2023/05/30 01:54:45;;;;;;;201.20;63.45;;;;;;;17.83;54.47;102321.09;4987998;28;20085;-77
2023/05/30 01:57:15;;;;;;;209.23;66.35;;;;;;;17.81;54.43;102321.13;4967939;28;20023;-77
2023/05/30 01:59:42;;;;;;;211.88;66.30;;;;;;;17.82;54.81;102317.59;4989185;28;20056;-77
2023/05/30 02:02:08;;;;;;;207.18;65.10;;;;;;;17.81;54.79;102321.13;4989096;28;20034;-77
2023/05/30 02:04:35;;;;;;;209.70;66.60;;;;;;;17.81;54.29;102320.25;4965911;28;20022;-77
2023/05/30 02:07:00;;;;;;;202.85;64.75;;;;;;;17.81;54.65;102317.63;4969650;28;20146;-77
2023/05/30 02:09:26;;;;;;;190.07;62.40;;;;;;;17.79;54.51;102314.13;4983458;28;20081;-77
2023/05/30 02:11:51;;;;;;;200.10;64.45;;;;;;;17.79;54.83;102319.41;4992379;28;20027;-77
2023/05/30 02:14:17;;;;;;;196.68;63.47;;;;;;;17.79;54.52;102317.63;4987757;28;20104;-77
2023/05/30 02:16:42;;;;;;;198.05;63.83;;;;;;;17.79;53.96;102316.78;4989723;28;20040;-77
2023/05/30 02:19:08;;;;;;;206.25;64.55;;;;;;;17.79;54.28;102316.78;4988385;28;20113;-77
2023/05/30 02:21:33;;;;;;;199.82;62.95;;;;;;;17.78;54.55;102320.31;4970340;28;20392;-77
2023/05/30 02:23:58;;;;;;;198.63;63.88;;;;;;;17.77;54.73;102331.81;4989480;28;20391;-77
2023/05/30 02:26:26;;;;;;;198.98;64.30;;;;;;;17.76;54.13;102338.84;4974070;28;20018;-77
2023/05/30 02:28:51;;;;;;;201.10;63.65;;;;;;;17.75;54.35;102334.44;4996606;28;20027;-77
2023/05/30 02:31:16;;;;;;;198.10;64.10;;;;;;;17.76;54.92;102337.97;4991689;28;20026;-77
2023/05/30 02:33:42;;;;;;;210.75;65.25;;;;;;;17.75;54.13;102342.38;4989891;28;20241;-77
2023/05/30 02:36:08;;;;;;;196.93;63.45;;;;;;;17.74;54.56;102341.53;4989074;28;20026;-77
2023/05/30 02:38:34;;;;;;;199.32;64.07;;;;;;;17.72;54.27;102343.34;4987646;28;20029;-77
2023/05/30 02:40:59;;;;;;;200.15;64.40;;;;;;;17.73;54.10;102347.69;4990232;28;20072;-77
2023/05/30 02:43:25;;;;;;;205.25;65.47;;;;;;;17.72;54.17;102348.63;4982192;28;20034;-77
2023/05/30 02:45:51;;;;;;;200.95;63.33;;;;;;;17.73;54.54;102358.28;4988395;28;20026;-77
2023/05/30 02:48:16;;;;;;;202.32;64.47;;;;;;;17.72;54.44;102353.03;4988699;28;20550;-76
2023/05/30 02:50:41;;;;;;;197.27;63.55;;;;;;;17.71;54.14;102344.22;4988624;28;20058;-77
2023/05/30 02:53:07;;;;;;;202.23;64.60;;;;;;;17.72;54.19;102347.72;4975191;28;20039;-77
2023/05/30 02:55:32;;;;;;;191.88;63.28;;;;;;;17.70;54.45;102345.13;4985633;28;20088;-77
2023/05/30 02:57:58;;;;;;;197.23;63.47;;;;;;;17.69;54.46;102348.66;4994326;28;20034;-77
2023/05/30 03:00:23;;;;;;;202.05;63.95;;;;;;;17.69;54.12;102348.66;4992915;28;20018;-77
2023/05/30 03:02:49;;;;;;;200.13;64.60;;;;;;;17.70;54.04;102352.19;4994074;28;20076;-77
2023/05/30 03:05:15;;;;;;;201.00;64.47;;;;;;;17.69;54.38;102359.22;4982733;28;20035;-77
2023/05/30 03:07:40;;;;;;;199.40;65.05;;;;;;;17.69;54.05;102346.03;4975238;28;20019;-77
2023/05/30 03:10:06;;;;;;;192.30;63.30;;;;;;;17.71;54.06;102359.19;4976190;28;20113;-77
2023/05/30 03:12:31;;;;;;;202.55;64.25;;;;;;;17.70;54.05;102352.19;4994083;28;20034;-78
2023/05/30 03:14:57;;;;;;;189.93;62.92;;;;;;;17.70;54.14;102354.84;4974164;28;20145;-77
2023/05/30 03:17:22;;;;;;;195.95;62.90;;;;;;;17.71;54.45;102351.28;5029303;23;20045;-72
2023/05/30 03:19:48;;;;;;;197.73;63.88;;;;;;;17.69;53.90;102351.31;4995859;28;20032;-72
2023/05/30 03:22:13;;;;;;;207.77;65.40;;;;;;;17.70;54.05;102355.69;5007090;28;20110;-72
2023/05/30 03:24:39;;;;;;;198.05;63.13;;;;;;;17.71;54.36;102354.81;4994632;28;20125;-72
2023/05/30 03:27:05;;;;;;;195.35;62.58;;;;;;;17.72;54.17;102355.66;4996752;28;20018;-72
2023/05/30 03:29:31;;;;;;;205.60;64.53;;;;;;;17.73;53.76;102366.19;4978325;28;20030;-72
2023/05/30 03:31:56;;;;;;;198.68;63.88;;;;;;;17.74;53.89;102369.72;4994792;28;20068;-72
2023/05/30 03:34:22;;;;;;;212.27;66.78;;;;;;;17.76;53.37;102369.69;4977692;28;20025;-72
2023/05/30 03:36:52;;;;;;;204.20;64.43;;;;;;;17.75;54.15;102363.53;5010952;28;20387;-73
2023/05/30 03:39:21;;;;;;;198.07;64.00;;;;;;;17.77;53.69;102371.44;4993443;28;20022;-72
2023/05/30 03:41:46;;;;;;;211.30;66.03;;;;;;;17.80;53.49;102381.94;4982109;28;20411;-72
2023/05/30 03:44:11;;;;;;;221.40;66.93;;;;;;;17.82;53.22;102372.19;4992170;28;20018;-73
2023/05/30 03:46:37;;;;;;;195.15;62.80;;;;;;;17.84;53.28;102373.06;4995208;28;20549;-72
2023/05/30 03:49:02;;;;;;;200.00;64.25;;;;;;;17.86;53.76;102381.81;5009344;28;20022;-72
2023/05/30 03:51:28;;;;;;;196.85;63.28;;;;;;;17.89;53.05;102392.34;5013791;28;20025;-72
2023/05/30 03:53:53;;;;;;;196.68;63.78;;;;;;;17.91;53.62;102385.25;4997589;28;20022;-72
2023/05/30 03:56:18;;;;;;;187.73;61.05;;;;;;;17.94;53.45;102379.91;5011358;28;20072;-72
2023/05/30 03:58:44;;;;;;;199.05;63.17;;;;;;;17.96;53.09;102378.13;5013770;28;20139;-73
2023/05/30 04:01:10;;;;;;;198.38;62.92;;;;;;;17.98;53.40;102381.59;4988355;28;20100;-72
2023/05/30 04:03:37;;;;;;;193.27;62.33;;;;;;;17.99;52.48;102378.06;5000089;28;20160;-72
2023/05/30 04:06:03;;;;;;;190.02;61.97;;;;;;;18.02;52.78;102377.13;5012230;28;20052;-73
2023/05/30 04:08:28;;;;;;;197.95;62.90;;;;;;;18.02;52.54;102377.97;4997863;28;20030;-73
2023/05/30 04:10:53;;;;;;;207.45;65.45;;;;;;;18.03;52.97;102374.44;5016990;28;20045;-72
2023/05/30 04:13:19;;;;;;;196.35;62.70;;;;;;;18.03;52.79;102381.50;5009989;28;20068;-72
2023/05/30 04:15:44;;;;;;;203.95;64.63;;;;;;;18.02;52.71;102375.34;5013669;28;20414;-72
2023/05/30 04:18:10;;;;;;;205.52;66.20;;;;;;;18.04;52.24;102386.78;4996520;28;20021;-73
2023/05/30 04:20:35;;;;;;;200.15;64.22;;;;;;;18.03;52.90;102382.38;5016274;28;20539;-72
2023/05/30 04:23:00;;;;;;;198.43;63.85;;;;;;;18.04;52.15;102385.91;4974253;28;20476;-73
2023/05/30 04:25:26;;;;;;;196.85;64.03;;;;;;;18.04;52.52;102381.47;4995203;28;20116;-72
2023/05/30 04:27:51;;;;;;;194.40;63.50;;;;;;;18.06;52.70;102389.38;4999806;28;20026;-72
2023/05/30 04:30:17;;;;;;;198.82;63.08;;;;;;;18.07;52.15;102399.91;4998299;28;20061;-73
2023/05/30 04:32:45;;;;;;;192.15;61.42;;;;;;;18.05;52.65;102401.75;4995490;28;20491;-73
2023/05/30 04:35:13;;;;;;;199.88;63.95;;;;;;;18.06;52.21;102410.53;5010698;28;20028;-73
2023/05/30 04:37:43;;;;;;;197.52;63.38;;;;;;;18.05;52.91;102400.84;5012325;28;20058;-72
2023/05/30 04:40:12;;;;;;;198.23;63.75;;;;;;;18.06;52.51;102394.66;4978556;28;20025;-73
2023/05/30 04:42:41;;;;;;;196.38;63.42;;;;;;;18.06;52.83;102395.56;4995375;28;20383;-72
2023/05/30 04:45:07;;;;;;;205.15;65.10;;;;;;;18.06;52.35;102395.56;4995460;28;20026;-72
2023/05/30 04:47:33;;;;;;;200.02;64.85;;;;;;;18.08;52.27;102396.38;5023363;28;20117;-73
2023/05/30 04:50:01;;;;;;;199.93;63.42;;;;;;;18.12;51.92;102393.66;5010790;28;20105;-73
2023/05/30 04:52:27;;;;;;;197.95;63.72;;;;;;;18.12;51.90;102391.91;5011082;28;20022;-72
2023/05/30 04:54:52;;;;;;;202.93;62.70;;;;;;;18.15;52.42;102399.75;5011432;28;20026;-72
2023/05/30 04:57:19;;;;;;;198.30;62.80;;;;;;;18.17;51.85;102397.09;5010445;28;20034;-72
2023/05/30 04:59:44;;;;;;;194.48;63.03;;;;;;;18.19;52.46;102401.44;4991848;28;20069;-72
2023/05/30 05:02:10;;;;;;;200.80;64.55;;;;;;;18.20;51.67;102407.59;4994459;28;20054;-73
2023/05/30 05:04:35;;;;;;;188.80;62.08;;;;;;;18.22;51.74;102405.81;4995001;28;20091;-73
2023/05/30 05:07:00;;;;;;;195.93;62.70;;;;;;;18.23;51.83;102403.13;4995082;28;20416;-72
2023/05/30 05:09:26;;;;;;;201.13;64.15;;;;;;;18.25;51.80;102405.72;4998103;28;20029;-72
2023/05/30 05:11:52;;;;;;;207.55;64.90;;;;;;;18.26;52.01;102404.84;5011976;28;20032;-72
2023/05/30 05:14:18;;;;;;;209.07;64.63;;;;;;;18.27;51.58;102403.94;5010332;28;20494;-72
2023/05/30 05:16:43;;;;;;;195.50;62.30;;;;;;;18.28;51.31;102410.94;4994603;28;20064;-73
2023/05/30 05:19:08;;;;;;;191.98;61.85;;;;;;;18.28;51.31;102416.22;4994013;28;20026;-73
2023/05/30 05:21:35;;;;;;;195.82;63.55;;;;;;;18.29;52.02;102419.75;5011328;28;20014;-73
2023/05/30 05:24:00;;;;;;;199.00;62.92;;;;;;;18.30;51.67;102416.22;4992957;28;20387;-72
2023/05/30 05:26:26;;;;;;;191.68;62.70;;;;;;;18.29;51.48;102428.56;5011937;28;20052;-72
2023/05/30 05:28:51;;;;;;;207.00;64.53;;;;;;;18.29;51.67;102427.69;5011248;28;20479;-72
2023/05/30 05:31:18;;;;;;;194.60;62.70;;;;;;;18.28;50.98;102432.09;5006447;28;20022;-72
2023/05/30 05:33:43;;;;;;;196.55;62.70;;;;;;;18.29;51.64;102423.28;4992943;28;20022;-72
2023/05/30 05:36:08;;;;;;;200.60;62.35;;;;;;;18.30;51.28;102425.03;5011117;28;20030;-72
2023/05/30 05:38:34;;;;;;;197.55;63.72;;;;;;;18.31;51.21;102421.47;5011866;28;20022;-72
2023/05/30 05:41:00;;;;;;;203.18;63.88;;;;;;;18.34;51.37;102428.47;5001294;28;20026;-72
2023/05/30 05:43:25;;;;;;;200.18;63.78;;;;;;;18.37;51.44;102423.97;5010088;28;20112;-72
2023/05/30 05:45:51;;;;;;;199.05;64.50;;;;;;;18.42;50.49;102422.09;5002068;28;20018;-73
2023/05/30 05:48:17;;;;;;;198.00;63.58;;;;;;;18.47;51.17;102426.44;5009088;28;20041;-73
2023/05/30 05:50:42;;;;;;;195.85;63.13;;;;;;;18.51;50.54;102433.41;4992271;28;20060;-73
2023/05/30 05:53:07;;;;;;;216.57;66.93;;;;;;;18.54;50.35;102434.22;5010161;28;20048;-73
2023/05/30 05:55:32;;;;;;;198.65;64.72;;;;;;;18.58;50.21;102429.69;4976393;28;20450;-74
2023/05/30 05:57:58;;;;;;;195.85;63.45;;;;;;;18.63;50.03;102427.81;5011625;28;20491;-73
2023/05/30 06:00:24;;;;;;;201.27;64.18;;;;;;;18.67;50.33;102428.63;4994296;28;20466;-71
2023/05/30 06:02:49;;;;;;;202.10;63.85;;;;;;;18.69;50.31;102424.16;4987617;28;20491;-72
2023/05/30 06:05:15;;;;;;;200.20;64.72;;;;;;;18.74;49.95;102420.50;5007049;28;20045;-72
2023/05/30 06:07:40;;;;;;;194.60;63.20;;;;;;;18.78;49.63;102426.59;5010445;28;20030;-73
2023/05/30 06:10:06;;;;;;;194.65;63.28;;;;;;;18.78;49.96;102425.75;5010053;28;20053;-73
2023/05/30 06:12:31;;;;;;;196.95;63.75;;;;;;;18.78;49.63;102438.97;5006846;28;20030;-73
2023/05/30 06:14:56;;;;;;;199.52;65.05;;;;;;;18.74;50.09;102438.16;5009180;28;20036;-73
2023/05/30 06:17:22;;;;;;;196.20;64.97;;;;;;;18.67;50.23;102440.09;4994429;28;20032;-73
2023/05/30 06:19:50;;;;;;;199.43;64.53;;;;;;;18.64;50.26;102434.88;4995034;28;20029;-72
2023/05/30 06:22:15;;;;;;;203.63;65.90;;;;;;;18.60;50.00;102433.19;4991127;28;20014;-72
2023/05/30 06:24:40;;;;;;;200.73;66.07;;;;;;;18.60;50.50;102438.50;5007588;28;20042;-72
2023/05/30 06:27:06;;;;;;;199.60;63.40;;;;;;;18.64;49.98;102440.16;4976956;28;20022;-72
2023/05/30 06:29:34;;;;;;;195.98;64.93;;;;;;;18.68;49.70;102440.94;4996990;28;20030;-72
2023/05/30 06:32:00;;;;;;;211.05;66.53;;;;;;;18.70;50.14;102437.34;4984137;28;20072;-72
2023/05/30 06:34:25;;;;;;;194.98;64.35;;;;;;;18.77;49.80;102439.88;4978212;28;20108;-72
2023/05/30 06:36:50;;;;;;;196.13;63.08;;;;;;;18.83;49.28;102439.72;5000134;28;20057;-72
2023/05/30 06:39:16;;;;;;;200.68;63.58;;;;;;;18.86;49.42;102434.38;4972125;28;20029;-71
2023/05/30 06:41:43;;;;;;;209.25;65.18;;;;;;;18.87;49.56;102446.69;5007106;28;20037;-72
2023/05/30 06:44:08;;;;;;;208.48;65.13;;;;;;;18.89;49.10;102450.22;4995725;28;20025;-71
2023/05/30 06:46:34;;;;;;;197.55;64.43;;;;;;;18.94;48.84;102444.78;4996052;28;20029;-72
2023/05/30 06:48:59;;;;;;;195.90;63.03;;;;;;;18.97;49.33;102442.97;4995519;28;20022;-71
2023/05/30 06:51:24;;;;;;;195.38;63.63;;;;;;;18.98;49.10;102450.00;4993244;28;20472;-71
2023/05/30 06:53:50;;;;;;;206.52;64.63;;;;;;;18.96;49.56;102449.16;5011760;28;20038;-72
2023/05/30 06:56:15;;;;;;;198.50;64.20;;;;;;;18.93;48.72;102449.25;4972772;28;20029;-72
2023/05/30 06:58:40;;;;;;;193.25;63.70;;;;;;;18.93;49.60;102454.53;4993774;28;20056;-72
2023/05/30 07:01:06;;;;;;;200.35;63.95;;;;;;;18.90;49.17;102452.81;4984775;28;20453;-73
2023/05/30 07:03:31;;;;;;;198.70;65.30;;;;;;;18.91;49.62;102451.06;4997440;28;20537;-73
2023/05/30 07:05:57;;;;;;;200.45;64.28;;;;;;;18.92;49.26;102451.03;4987453;28;20026;-72
2023/05/30 07:08:22;;;;;;;201.85;64.65;;;;;;;18.92;49.19;102455.44;4991254;28;20060;-73
2023/05/30 07:10:47;;;;;;;195.93;63.90;;;;;;;18.92;49.61;102458.06;4996889;28;20490;-73
2023/05/30 07:13:13;;;;;;;208.18;66.05;;;;;;;18.92;49.68;102455.44;5011975;28;20398;-73
2023/05/30 07:15:38;;;;;;;191.63;64.43;;;;;;;18.93;49.57;102454.53;4974066;28;20058;-73
2023/05/30 07:18:03;;;;;;;196.80;63.85;;;;;;;18.91;49.39;102451.94;5013249;28;20033;-73
2023/05/30 07:20:29;;;;;;;197.88;64.60;;;;;;;18.90;49.45;102457.25;4996755;28;20049;-72
2023/05/30 07:22:54;;;;;;;208.43;66.65;;;;;;;18.88;49.09;102459.06;4975660;28;20026;-72
2023/05/30 07:25:19;;;;;;;207.10;67.22;;;;;;;18.86;49.86;102456.41;4994625;28;20399;-72
2023/05/30 07:27:45;;;;;;;200.27;64.57;;;;;;;18.86;49.67;102460.84;4992191;28;20129;-73
2023/05/30 07:30:10;;;;;;;200.20;64.90;;;;;;;18.85;49.56;102461.75;4990742;28;20030;-72
2023/05/30 07:32:36;;;;;;;205.18;65.05;;;;;;;18.84;49.93;102463.53;4995587;28;20029;-72
2023/05/30 07:35:01;;;;;;;203.50;65.55;;;;;;;18.85;49.46;102453.81;5012897;28;20124;-72
2023/05/30 07:37:26;;;;;;;206.80;65.20;;;;;;;18.86;49.75;102466.16;5003107;28;20030;-72
2023/05/30 07:39:52;;;;;;;201.50;66.53;;;;;;;18.86;49.38;102460.84;4994606;28;20399;-72
2023/05/30 07:42:17;;;;;;;199.90;64.05;;;;;;;18.88;49.26;102469.66;4987848;28;20072;-72
2023/05/30 07:44:42;;;;;;;204.85;66.18;;;;;;;18.87;49.29;102468.75;5012338;28;20029;-72
2023/05/30 07:47:07;;;;;;;196.15;65.07;;;;;;;18.87;49.18;102473.16;5004413;28;20037;-72
2023/05/30 07:49:33;;;;;;;196.13;63.20;;;;;;;18.87;49.71;102479.34;4991841;28;20399;-72
2023/05/30 07:51:58;;;;;;;198.63;64.78;;;;;;;18.86;49.69;102482.88;4996263;28;20057;-73
2023/05/30 07:54:23;;;;;;;201.27;65.38;;;;;;;18.86;49.32;102479.38;4994519;28;20104;-72
2023/05/30 07:56:49;;;;;;;193.05;64.07;;;;;;;18.86;49.51;102487.31;5011258;28;20087;-73
2023/05/30 07:59:14;;;;;;;200.80;65.00;;;;;;;18.85;49.47;102481.13;5013687;28;20032;-73
2023/05/30 08:01:41;;;;;;;194.30;63.72;;;;;;;18.85;49.56;102480.28;4992438;28;20056;-72
2023/05/30 08:04:06;;;;;;;197.57;65.13;;;;;;;18.85;49.56;102481.13;4995770;28;20080;-72
2023/05/30 08:06:33;;;;;;;201.50;64.95;;;;;;;18.86;49.66;102482.03;4994215;28;20510;-73
2023/05/30 08:08:59;;;;;;;203.93;66.00;;;;;;;18.88;49.72;102481.13;4995155;28;20021;-72
2023/05/30 08:11:25;;;;;;;201.10;64.88;;;;;;;18.90;49.22;102475.78;4987452;28;20037;-72
2023/05/30 08:13:50;;;;;;;192.95;63.30;;;;;;;18.92;49.00;102484.56;5011117;28;20510;-72
2023/05/30 08:16:16;;;;;;;197.73;65.20;;;;;;;18.92;49.49;102473.97;4994671;28;20036;-72
2023/05/30 08:18:41;;;;;;;196.73;64.20;;;;;;;18.92;48.84;102481.91;4991089;28;20108;-73
2023/05/30 08:21:07;;;;;;;198.20;64.95;;;;;;;18.91;49.44;102480.19;4983105;28;20022;-72
2023/05/30 08:23:33;;;;;;;199.00;64.03;;;;;;;18.91;49.51;102472.25;4983440;28;20509;-72
2023/05/30 08:25:58;;;;;;;198.23;65.65;;;;;;;18.92;49.42;102466.91;4988550;28;20046;-73
2023/05/30 08:28:24;;;;;;;201.93;64.32;;;;;;;18.91;48.81;102474.91;4979405;28;20026;-73
2023/05/30 08:30:50;;;;;;;210.95;66.88;;;;;;;18.93;49.19;102470.41;5012103;28;20026;-72
2023/05/30 08:33:18;;;;;;;200.98;65.68;;;;;;;18.91;49.27;102474.91;5013001;28;20032;-72
2023/05/30 08:35:45;;;;;;;197.75;65.10;;;;;;;18.91;48.79;102466.94;4996927;28;20033;-73
2023/05/30 08:38:10;;;;;;;200.45;65.35;;;;;;;18.90;49.31;102466.06;4986451;28;20053;-73
2023/05/30 08:40:40;;;;;;;198.35;64.78;;;;;;;18.92;48.81;102476.63;4994781;28;20067;-73
2023/05/30 08:43:06;;;;;;;202.98;64.72;;;;;;;18.94;48.89;102468.63;4991092;28;20080;-72
2023/05/30 08:45:31;;;;;;;196.38;63.63;;;;;;;18.95;48.94;102465.97;4978772;28;20022;-72
2023/05/30 08:47:59;;;;;;;193.10;63.40;;;;;;;18.96;49.19;102475.63;5013085;28;20391;-72
2023/05/30 08:50:25;;;;;;;196.50;63.85;;;;;;;18.96;49.20;102483.56;4993770;28;20458;-72
2023/05/30 08:52:52;;;;;;;195.98;64.80;;;;;;;18.95;49.16;102481.84;4992813;28;20057;-72
2023/05/30 08:55:22;;;;;;;201.63;65.28;;;;;;;18.94;48.50;102485.41;4971091;28;20116;-73
2023/05/30 08:58:12;;;;;;;192.52;64.13;;;;;;;18.94;49.02;102480.09;4976374;28;20403;-72
2023/05/30 09:00:38;;;;;;;198.52;65.07;;;;;;;18.93;48.83;102481.00;5010942;28;20049;-72
2023/05/30 09:03:05;;;;;;;194.20;64.35;;;;;;;18.96;49.15;102483.56;4971487;28;20049;-72
2023/05/30 09:05:33;;;;;;;207.40;66.50;;;;;;;18.98;49.17;102492.38;4986021;28;20506;-73
2023/05/30 09:07:58;;;;;;;194.88;64.38;;;;;;;19.00;49.16;102492.34;4977833;28;20032;-73
2023/05/30 09:10:24;;;;;;;199.32;64.60;;;;;;;19.01;49.23;102494.09;4976921;28;20022;-73
2023/05/30 09:12:49;;;;;;;198.95;65.00;;;;;;;18.99;48.91;102496.78;4977163;28;20446;-73
2023/05/30 09:15:15;;;;;;;194.90;62.95;;;;;;;18.99;48.73;102502.06;4990736;28;20498;-73
2023/05/30 09:17:41;;;;;;;197.85;66.10;;;;;;;18.99;48.83;102504.72;5026335;23;20447;-78
2023/05/30 09:20:09;;;;;;;199.50;65.13;;;;;;;19.00;49.02;102498.50;4989119;28;20089;-78
2023/05/30 09:22:36;;;;;;;198.38;65.68;;;;;;;19.01;49.07;102489.66;4994964;28;20053;-78
2023/05/30 09:25:03;;;;;;;210.40;68.57;;;;;;;19.04;48.75;102489.56;4975985;28;20031;-78
2023/05/30 09:27:34;;;;;;;195.18;64.50;;;;;;;19.07;49.10;102494.81;4979311;28;20022;-78
2023/05/30 09:30:06;;;;;;;197.50;64.95;;;;;;;19.08;48.82;102498.31;4979448;28;20031;-79
2023/05/30 09:32:34;;;;;;;200.40;65.90;;;;;;;19.07;48.82;102492.16;4979665;28;20026;-78
2023/05/30 09:35:04;;;;;;;200.18;66.07;;;;;;;19.09;48.55;102494.78;4995285;28;20050;-78
2023/05/30 09:37:41;;;;;;;196.65;65.00;;;;;;;19.11;48.70;102500.03;5006745;28;20455;-78
2023/05/30 09:40:10;;;;;;;193.73;65.50;;;;;;;19.14;48.29;102502.59;4994181;28;20634;-79
2023/05/30 09:42:52;;;;;;;194.98;65.30;;;;;;;19.14;48.66;102507.91;5009324;28;20026;-78
2023/05/30 09:45:22;;;;;;;211.20;67.32;;;;;;;19.13;48.22;102507.03;4992014;28;20541;-78
2023/05/30 09:47:48;;;;;;;201.43;66.65;;;;;;;19.14;48.51;102513.19;4975558;28;20098;-78
2023/05/30 09:50:16;;;;;;;210.32;67.30;;;;;;;19.14;48.19;102505.25;4991846;28;20522;-78
2023/05/30 09:52:42;;;;;;;202.27;66.35;;;;;;;19.14;48.24;102502.59;4974507;28;20443;-78
2023/05/30 09:55:09;;;;;;;200.90;65.68;;;;;;;19.15;48.00;102513.16;4991388;28;20058;-78
2023/05/30 09:57:36;;;;;;;219.63;71.35;;;;;;;19.15;48.33;102510.50;4991862;28;20018;-81
2023/05/30 10:00:09;;;;;;;196.85;65.47;;;;;;;19.18;48.26;102517.50;4974719;28;20488;-78
2023/05/30 10:02:36;;;;;;;190.57;63.65;;;;;;;19.18;47.80;102509.56;4987771;28;20504;-79
2023/05/30 10:05:03;;;;;;;198.68;65.90;;;;;;;19.22;47.87;102527.13;4985955;28;20037;-78
2023/05/30 10:07:29;;;;;;;199.55;65.72;;;;;;;19.25;48.29;102521.75;4973440;28;20027;-78
2023/05/30 10:09:56;;;;;;;201.05;67.57;;;;;;;19.29;48.02;102522.56;5012207;28;20042;-79
2023/05/30 10:12:21;;;;;;;198.40;65.65;;;;;;;19.28;48.04;102521.69;4994675;28;20026;-79
2023/05/30 10:14:47;;;;;;;195.77;66.05;;;;;;;19.28;47.96;102527.00;4990395;28;20026;-78
2023/05/30 10:17:16;;;;;;;208.82;70.18;;;;;;;19.29;47.47;102526.06;5004760;28;20468;-78
2023/05/30 10:19:50;;;;;;;199.32;66.85;;;;;;;19.31;47.31;102529.56;4977150;28;20050;-79
2023/05/30 10:22:16;;;;;;;201.15;67.93;;;;;;;19.30;47.79;102530.47;4989314;28;20019;-79
2023/05/30 10:24:43;;;;;;;197.93;65.47;;;;;;;19.36;47.66;102530.31;4996375;28;20098;-80
2023/05/30 10:27:11;;;;;;;196.70;65.95;;;;;;;19.38;47.56;102528.50;4979834;28;20080;-79
2023/05/30 10:30:06;;;;;;;204.45;67.70;;;;;;;19.44;47.06;102524.81;4982771;28;20030;-79
2023/05/30 10:32:42;;;;;;;199.23;66.57;;;;;;;19.47;47.21;102526.53;4965632;28;20038;-77
2023/05/30 10:35:11;;;;;;;200.13;65.93;;;;;;;19.49;47.47;102532.69;4971638;28;20026;-77
2023/05/30 10:37:37;;;;;;;201.18;67.10;;;;;;;19.50;47.07;102521.19;4966355;28;20165;-78
2023/05/30 10:40:35;;;;;;;192.55;64.93;;;;;;;19.51;47.45;102523.78;4990630;28;20089;-78
2023/05/30 10:43:03;;;;;;;198.93;66.00;;;;;;;19.54;46.59;102528.13;4991095;28;20038;-78
2023/05/30 10:45:46;;;;;;;199.90;67.65;;;;;;;19.52;47.13;102516.69;4991046;28;20384;-79
2023/05/30 10:48:29;;;;;;;203.80;66.15;;;;;;;19.51;47.03;102526.44;4991455;28;20034;-79
2023/05/30 10:51:01;;;;;;;263.80;76.80;;;;;;;19.49;47.26;102524.72;4989828;28;20026;-78
2023/05/30 10:53:27;;;;;;;201.85;67.35;;;;;;;19.46;47.36;102523.03;4991905;28;20479;-78
2023/05/30 10:55:53;;;;;;;198.07;65.93;;;;;;;19.47;46.88;102515.94;4967101;28;20027;-78
2023/05/30 10:58:37;;;;;;;199.20;64.80;;;;;;;19.48;46.93;102515.03;5001566;28;20037;-78
2023/05/30 11:01:26;;;;;;;201.50;66.50;;;;;;;19.51;47.13;102512.28;5007157;28;20399;-79
2023/05/30 11:03:55;;;;;;;203.70;69.10;;;;;;;19.50;46.83;102506.13;4970793;28;20041;-82